sensor_id;sensor_type;location;lat;lon;timestamp;P1;durP1;ratioP1;P2;durP2;ratioP2
29294;SDS011;16305;48.566;8.846;2023-03-13T00:00:15;12.33;;;2.50;;
29294;SDS011;16305;48.566;8.846;2023-03-13T00:02:41;11.03;;;2.37;;
29294;SDS011;16305;48.566;8.846;2023-03-13T00:05:09;9.90;;;3.53;;
29294;SDS011;16305;48.566;8.846;2023-03-13T00:07:35;8.80;;;3.50;;
29294;SDS011;16305;48.566;8.846;2023-03-13T00:10:01;12.57;;;3.73;;
29294;SDS011;16305;48.566;8.846;2023-03-13T00:12:26;12.57;;;3.10;;
29294;SDS011;16305;48.566;8.846;2023-03-13T00:14:52;10.17;;;2.67;;
29294;SDS011;16305;48.566;8.846;2023-03-13T00:17:17;9.60;;;2.60;;
29294;SDS011;16305;48.566;8.846;2023-03-13T00:19:43;8.33;;;2.47;;
29294;SDS011;16305;48.566;8.846;2023-03-13T00:22:08;7.37;;;2.23;;
29294;SDS011;16305;48.566;8.846;2023-03-13T00:24:34;5.40;;;2.30;;
29294;SDS011;16305;48.566;8.846;2023-03-13T00:26:59;8.50;;;2.27;;
29294;SDS011;16305;48.566;8.846;2023-03-13T00:29:27;6.57;;;1.80;;
29294;SDS011;16305;48.566;8.846;2023-03-13T00:31:54;7.20;;;1.90;;
29294;SDS011;16305;48.566;8.846;2023-03-13T00:34:19;6.73;;;2.07;;
29294;SDS011;16305;48.566;8.846;2023-03-13T00:36:45;4.50;;;1.63;;
29294;SDS011;16305;48.566;8.846;2023-03-13T00:39:10;5.63;;;1.53;;
29294;SDS011;16305;48.566;8.846;2023-03-13T00:41:36;6.10;;;2.50;;
29294;SDS011;16305;48.566;8.846;2023-03-13T00:44:02;7.27;;;2.37;;
29294;SDS011;16305;48.566;8.846;2023-03-13T00:46:28;5.87;;;2.50;;
29294;SDS011;16305;48.566;8.846;2023-03-13T00:48:55;11.83;;;2.23;;
29294;SDS011;16305;48.566;8.846;2023-03-13T00:51:21;7.97;;;1.90;;
29294;SDS011;16305;48.566;8.846;2023-03-13T00:53:48;7.13;;;1.80;;
29294;SDS011;16305;48.566;8.846;2023-03-13T00:56:15;7.43;;;1.43;;
29294;SDS011;16305;48.566;8.846;2023-03-13T00:58:42;7.60;;;1.97;;
29294;SDS011;16305;48.566;8.846;2023-03-13T01:01:10;6.13;;;1.63;;
29294;SDS011;16305;48.566;8.846;2023-03-13T01:03:37;6.00;;;1.60;;
29294;SDS011;16305;48.566;8.846;2023-03-13T01:06:05;8.37;;;1.60;;
29294;SDS011;16305;48.566;8.846;2023-03-13T01:08:32;7.77;;;2.23;;
29294;SDS011;16305;48.566;8.846;2023-03-13T01:10:59;5.57;;;1.90;;
29294;SDS011;16305;48.566;8.846;2023-03-13T01:13:26;6.33;;;1.77;;
29294;SDS011;16305;48.566;8.846;2023-03-13T01:15:57;8.60;;;1.93;;
29294;SDS011;16305;48.566;8.846;2023-03-13T01:18:28;5.20;;;2.10;;
29294;SDS011;16305;48.566;8.846;2023-03-13T01:20:54;12.33;;;2.17;;
29294;SDS011;16305;48.566;8.846;2023-03-13T01:23:19;10.33;;;2.07;;
29294;SDS011;16305;48.566;8.846;2023-03-13T01:25:45;10.57;;;2.77;;
29294;SDS011;16305;48.566;8.846;2023-03-13T01:28:10;6.97;;;2.40;;
29294;SDS011;16305;48.566;8.846;2023-03-13T01:30:36;7.87;;;2.70;;
29294;SDS011;16305;48.566;8.846;2023-03-13T01:33:01;7.10;;;2.70;;
29294;SDS011;16305;48.566;8.846;2023-03-13T01:35:27;12.10;;;3.27;;
29294;SDS011;16305;48.566;8.846;2023-03-13T01:37:53;7.50;;;2.50;;
29294;SDS011;16305;48.566;8.846;2023-03-13T01:40:18;5.83;;;2.30;;
29294;SDS011;16305;48.566;8.846;2023-03-13T01:42:48;8.07;;;2.23;;
29294;SDS011;16305;48.566;8.846;2023-03-13T01:48:17;8.23;;;1.63;;
29294;SDS011;16305;48.566;8.846;2023-03-13T01:50:45;5.30;;;1.83;;
29294;SDS011;16305;48.566;8.846;2023-03-13T01:53:11;9.23;;;1.87;;
29294;SDS011;16305;48.566;8.846;2023-03-13T01:55:36;7.40;;;2.83;;
29294;SDS011;16305;48.566;8.846;2023-03-13T01:58:02;8.73;;;2.77;;
29294;SDS011;16305;48.566;8.846;2023-03-13T02:00:29;7.50;;;2.50;;
29294;SDS011;16305;48.566;8.846;2023-03-13T02:02:59;4.97;;;1.50;;
29294;SDS011;16305;48.566;8.846;2023-03-13T02:05:34;6.00;;;1.77;;
29294;SDS011;16305;48.566;8.846;2023-03-13T02:08:04;5.30;;;1.37;;
29294;SDS011;16305;48.566;8.846;2023-03-13T02:10:43;7.57;;;1.50;;
29294;SDS011;16305;48.566;8.846;2023-03-13T02:13:35;7.37;;;1.77;;
29294;SDS011;16305;48.566;8.846;2023-03-13T02:16:00;8.37;;;1.57;;
29294;SDS011;16305;48.566;8.846;2023-03-13T02:18:26;6.67;;;1.37;;
29294;SDS011;16305;48.566;8.846;2023-03-13T02:20:52;4.63;;;1.33;;
29294;SDS011;16305;48.566;8.846;2023-03-13T02:23:29;4.27;;;1.30;;
29294;SDS011;16305;48.566;8.846;2023-03-13T02:26:01;9.77;;;1.60;;
29294;SDS011;16305;48.566;8.846;2023-03-13T02:28:31;7.73;;;1.60;;
29294;SDS011;16305;48.566;8.846;2023-03-13T02:30:59;4.07;;;1.30;;
29294;SDS011;16305;48.566;8.846;2023-03-13T02:33:26;5.77;;;1.13;;
29294;SDS011;16305;48.566;8.846;2023-03-13T02:35:54;5.33;;;1.20;;
29294;SDS011;16305;48.566;8.846;2023-03-13T02:38:23;3.80;;;1.13;;
29294;SDS011;16305;48.566;8.846;2023-03-13T02:40:52;3.60;;;1.37;;
29294;SDS011;16305;48.566;8.846;2023-03-13T02:43:22;7.07;;;1.77;;
29294;SDS011;16305;48.566;8.846;2023-03-13T02:46:01;5.43;;;1.40;;
29294;SDS011;16305;48.566;8.846;2023-03-13T02:48:31;5.23;;;1.47;;
29294;SDS011;16305;48.566;8.846;2023-03-13T02:51:04;3.80;;;1.57;;
29294;SDS011;16305;48.566;8.846;2023-03-13T02:53:33;5.10;;;1.43;;
29294;SDS011;16305;48.566;8.846;2023-03-13T02:56:00;4.10;;;1.13;;
29294;SDS011;16305;48.566;8.846;2023-03-13T02:58:27;5.70;;;1.50;;
29294;SDS011;16305;48.566;8.846;2023-03-13T03:00:52;6.40;;;1.30;;
29294;SDS011;16305;48.566;8.846;2023-03-13T03:03:18;1.60;;;0.93;;
29294;SDS011;16305;48.566;8.846;2023-03-13T03:05:43;2.70;;;0.83;;
29294;SDS011;16305;48.566;8.846;2023-03-13T03:08:09;1.80;;;0.77;;
29294;SDS011;16305;48.566;8.846;2023-03-13T03:10:35;1.77;;;0.73;;
29294;SDS011;16305;48.566;8.846;2023-03-13T03:13:01;3.70;;;0.80;;
29294;SDS011;16305;48.566;8.846;2023-03-13T03:15:27;3.13;;;0.70;;
29294;SDS011;16305;48.566;8.846;2023-03-13T03:17:53;2.33;;;0.67;;
29294;SDS011;16305;48.566;8.846;2023-03-13T03:20:18;2.17;;;0.50;;
29294;SDS011;16305;48.566;8.846;2023-03-13T03:22:44;1.50;;;0.70;;
29294;SDS011;16305;48.566;8.846;2023-03-13T03:25:09;0.83;;;0.50;;
29294;SDS011;16305;48.566;8.846;2023-03-13T03:27:35;1.03;;;0.60;;
29294;SDS011;16305;48.566;8.846;2023-03-13T03:30:01;3.40;;;0.80;;
29294;SDS011;16305;48.566;8.846;2023-03-13T03:32:28;2.23;;;0.60;;
29294;SDS011;16305;48.566;8.846;2023-03-13T03:34:53;2.13;;;0.70;;
29294;SDS011;16305;48.566;8.846;2023-03-13T03:37:19;2.60;;;0.83;;
29294;SDS011;16305;48.566;8.846;2023-03-13T03:39:44;3.23;;;0.93;;
29294;SDS011;16305;48.566;8.846;2023-03-13T03:42:10;2.77;;;0.63;;
29294;SDS011;16305;48.566;8.846;2023-03-13T03:44:35;1.90;;;0.80;;
29294;SDS011;16305;48.566;8.846;2023-03-13T03:47:01;1.87;;;0.60;;
29294;SDS011;16305;48.566;8.846;2023-03-13T03:49:26;1.97;;;0.77;;
29294;SDS011;16305;48.566;8.846;2023-03-13T03:51:52;2.67;;;0.97;;
29294;SDS011;16305;48.566;8.846;2023-03-13T03:54:17;0.60;;;0.53;;
29294;SDS011;16305;48.566;8.846;2023-03-13T03:56:43;1.40;;;0.70;;
29294;SDS011;16305;48.566;8.846;2023-03-13T03:59:08;1.33;;;0.70;;
29294;SDS011;16305;48.566;8.846;2023-03-13T04:01:34;1.90;;;0.70;;
29294;SDS011;16305;48.566;8.846;2023-03-13T04:03:59;2.93;;;0.80;;
29294;SDS011;16305;48.566;8.846;2023-03-13T04:06:25;1.70;;;0.80;;
29294;SDS011;16305;48.566;8.846;2023-03-13T04:08:50;0.57;;;0.53;;
29294;SDS011;16305;48.566;8.846;2023-03-13T04:11:16;1.40;;;0.90;;
29294;SDS011;16305;48.566;8.846;2023-03-13T04:13:41;1.23;;;0.50;;
29294;SDS011;16305;48.566;8.846;2023-03-13T04:16:07;0.80;;;0.60;;
29294;SDS011;16305;48.566;8.846;2023-03-13T04:18:33;2.20;;;0.73;;
29294;SDS011;16305;48.566;8.846;2023-03-13T04:21:02;1.57;;;0.63;;
29294;SDS011;16305;48.566;8.846;2023-03-13T04:23:29;1.50;;;0.70;;
29294;SDS011;16305;48.566;8.846;2023-03-13T04:25:54;1.57;;;0.60;;
29294;SDS011;16305;48.566;8.846;2023-03-13T04:28:20;1.00;;;0.50;;
29294;SDS011;16305;48.566;8.846;2023-03-13T04:30:45;1.83;;;0.70;;
29294;SDS011;16305;48.566;8.846;2023-03-13T04:33:11;2.10;;;0.80;;
29294;SDS011;16305;48.566;8.846;2023-03-13T04:35:36;1.50;;;0.90;;
29294;SDS011;16305;48.566;8.846;2023-03-13T04:38:02;1.73;;;0.60;;
29294;SDS011;16305;48.566;8.846;2023-03-13T04:40:27;0.60;;;0.60;;
29294;SDS011;16305;48.566;8.846;2023-03-13T04:42:53;2.33;;;0.70;;
29294;SDS011;16305;48.566;8.846;2023-03-13T04:45:18;2.37;;;0.70;;
29294;SDS011;16305;48.566;8.846;2023-03-13T04:47:47;2.23;;;0.60;;
29294;SDS011;16305;48.566;8.846;2023-03-13T04:50:13;1.33;;;0.60;;
29294;SDS011;16305;48.566;8.846;2023-03-13T04:52:38;0.60;;;0.50;;
29294;SDS011;16305;48.566;8.846;2023-03-13T04:55:04;1.40;;;0.60;;
29294;SDS011;16305;48.566;8.846;2023-03-13T04:57:30;1.70;;;0.57;;
29294;SDS011;16305;48.566;8.846;2023-03-13T04:59:55;0.80;;;0.60;;
29294;SDS011;16305;48.566;8.846;2023-03-13T05:02:21;2.93;;;0.80;;
29294;SDS011;16305;48.566;8.846;2023-03-13T05:04:46;1.33;;;0.90;;
29294;SDS011;16305;48.566;8.846;2023-03-13T05:07:12;3.40;;;0.70;;
29294;SDS011;16305;48.566;8.846;2023-03-13T05:09:37;1.10;;;0.50;;
29294;SDS011;16305;48.566;8.846;2023-03-13T05:12:03;2.13;;;0.70;;
29294;SDS011;16305;48.566;8.846;2023-03-13T05:14:28;1.13;;;0.70;;
29294;SDS011;16305;48.566;8.846;2023-03-13T05:16:54;1.37;;;0.50;;
29294;SDS011;16305;48.566;8.846;2023-03-13T05:19:19;0.63;;;0.63;;
29294;SDS011;16305;48.566;8.846;2023-03-13T05:21:45;1.40;;;0.63;;
29294;SDS011;16305;48.566;8.846;2023-03-13T05:24:10;0.77;;;0.50;;
29294;SDS011;16305;48.566;8.846;2023-03-13T05:26:36;1.50;;;0.70;;
29294;SDS011;16305;48.566;8.846;2023-03-13T05:29:01;0.37;;;0.37;;
29294;SDS011;16305;48.566;8.846;2023-03-13T05:31:27;0.40;;;0.40;;
29294;SDS011;16305;48.566;8.846;2023-03-13T05:33:52;1.10;;;0.50;;
29294;SDS011;16305;48.566;8.846;2023-03-13T05:36:18;2.80;;;0.60;;
29294;SDS011;16305;48.566;8.846;2023-03-13T05:38:43;1.17;;;0.63;;
29294;SDS011;16305;48.566;8.846;2023-03-13T05:41:09;1.30;;;0.40;;
29294;SDS011;16305;48.566;8.846;2023-03-13T05:43:34;0.63;;;0.53;;
29294;SDS011;16305;48.566;8.846;2023-03-13T05:46:00;1.20;;;0.60;;
29294;SDS011;16305;48.566;8.846;2023-03-13T05:48:25;1.10;;;0.50;;
29294;SDS011;16305;48.566;8.846;2023-03-13T05:50:51;1.37;;;0.60;;
29294;SDS011;16305;48.566;8.846;2023-03-13T05:53:16;0.90;;;0.50;;
29294;SDS011;16305;48.566;8.846;2023-03-13T05:55:42;1.00;;;0.50;;
29294;SDS011;16305;48.566;8.846;2023-03-13T05:58:07;0.63;;;0.40;;
29294;SDS011;16305;48.566;8.846;2023-03-13T06:00:33;1.10;;;0.60;;
29294;SDS011;16305;48.566;8.846;2023-03-13T06:02:59;3.80;;;0.90;;
29294;SDS011;16305;48.566;8.846;2023-03-13T06:05:25;0.57;;;0.50;;
29294;SDS011;16305;48.566;8.846;2023-03-13T06:07:50;0.83;;;0.40;;
29294;SDS011;16305;48.566;8.846;2023-03-13T06:10:16;0.60;;;0.50;;
29294;SDS011;16305;48.566;8.846;2023-03-13T06:12:41;0.30;;;0.30;;
29294;SDS011;16305;48.566;8.846;2023-03-13T06:15:07;0.70;;;0.50;;
29294;SDS011;16305;48.566;8.846;2023-03-13T06:17:34;0.80;;;0.60;;
29294;SDS011;16305;48.566;8.846;2023-03-13T06:20:00;0.57;;;0.53;;
29294;SDS011;16305;48.566;8.846;2023-03-13T06:22:26;1.40;;;0.40;;
29294;SDS011;16305;48.566;8.846;2023-03-13T06:24:51;0.90;;;0.70;;
29294;SDS011;16305;48.566;8.846;2023-03-13T06:27:17;2.10;;;0.90;;
29294;SDS011;16305;48.566;8.846;2023-03-13T06:29:42;1.17;;;0.70;;
29294;SDS011;16305;48.566;8.846;2023-03-13T06:32:08;0.80;;;0.70;;
29294;SDS011;16305;48.566;8.846;2023-03-13T06:34:33;1.70;;;0.93;;
29294;SDS011;16305;48.566;8.846;2023-03-13T06:36:59;3.20;;;2.70;;
29294;SDS011;16305;48.566;8.846;2023-03-13T06:39:25;0.70;;;0.70;;
29294;SDS011;16305;48.566;8.846;2023-03-13T06:41:50;0.60;;;0.60;;
29294;SDS011;16305;48.566;8.846;2023-03-13T06:44:16;1.33;;;0.70;;
29294;SDS011;16305;48.566;8.846;2023-03-13T06:46:41;1.07;;;0.50;;
29294;SDS011;16305;48.566;8.846;2023-03-13T06:49:07;2.97;;;1.13;;
29294;SDS011;16305;48.566;8.846;2023-03-13T06:51:32;0.70;;;0.63;;
29294;SDS011;16305;48.566;8.846;2023-03-13T06:53:58;0.67;;;0.67;;
29294;SDS011;16305;48.566;8.846;2023-03-13T06:56:25;0.80;;;0.70;;
29294;SDS011;16305;48.566;8.846;2023-03-13T06:58:50;2.53;;;1.23;;
29294;SDS011;16305;48.566;8.846;2023-03-13T07:01:16;1.30;;;0.90;;
29294;SDS011;16305;48.566;8.846;2023-03-13T07:03:42;2.50;;;1.00;;
29294;SDS011;16305;48.566;8.846;2023-03-13T07:06:08;0.87;;;0.73;;
29294;SDS011;16305;48.566;8.846;2023-03-13T07:08:35;0.97;;;0.60;;
29294;SDS011;16305;48.566;8.846;2023-03-13T07:11:02;0.37;;;0.37;;
29294;SDS011;16305;48.566;8.846;2023-03-13T07:13:29;0.70;;;0.60;;
29294;SDS011;16305;48.566;8.846;2023-03-13T07:15:55;1.50;;;0.83;;
29294;SDS011;16305;48.566;8.846;2023-03-13T07:18:23;1.20;;;0.63;;
29294;SDS011;16305;48.566;8.846;2023-03-13T07:20:56;0.83;;;0.70;;
29294;SDS011;16305;48.566;8.846;2023-03-13T07:23:22;1.00;;;0.60;;
29294;SDS011;16305;48.566;8.846;2023-03-13T07:25:53;0.83;;;0.60;;
29294;SDS011;16305;48.566;8.846;2023-03-13T07:28:19;2.27;;;0.53;;
29294;SDS011;16305;48.566;8.846;2023-03-13T07:30:45;0.70;;;0.60;;
29294;SDS011;16305;48.566;8.846;2023-03-13T07:33:11;1.57;;;0.50;;
29294;SDS011;16305;48.566;8.846;2023-03-13T07:35:36;0.70;;;0.70;;
29294;SDS011;16305;48.566;8.846;2023-03-13T07:38:02;0.70;;;0.70;;
29294;SDS011;16305;48.566;8.846;2023-03-13T07:40:27;0.93;;;0.80;;
29294;SDS011;16305;48.566;8.846;2023-03-13T07:42:53;2.57;;;0.80;;
29294;SDS011;16305;48.566;8.846;2023-03-13T07:45:18;1.53;;;0.57;;
29294;SDS011;16305;48.566;8.846;2023-03-13T07:47:45;0.70;;;0.70;;
29294;SDS011;16305;48.566;8.846;2023-03-13T07:50:10;2.00;;;0.57;;
29294;SDS011;16305;48.566;8.846;2023-03-13T07:52:36;0.93;;;0.70;;
29294;SDS011;16305;48.566;8.846;2023-03-13T07:55:01;1.23;;;0.60;;
29294;SDS011;16305;48.566;8.846;2023-03-13T07:57:27;1.33;;;0.67;;
29294;SDS011;16305;48.566;8.846;2023-03-13T07:59:52;1.73;;;0.70;;
29294;SDS011;16305;48.566;8.846;2023-03-13T08:02:18;0.53;;;0.40;;
29294;SDS011;16305;48.566;8.846;2023-03-13T08:04:43;2.17;;;0.90;;
29294;SDS011;16305;48.566;8.846;2023-03-13T08:07:09;1.70;;;0.63;;
29294;SDS011;16305;48.566;8.846;2023-03-13T08:09:35;1.23;;;0.60;;
29294;SDS011;16305;48.566;8.846;2023-03-13T08:12:01;1.50;;;0.80;;
29294;SDS011;16305;48.566;8.846;2023-03-13T08:14:27;2.23;;;0.90;;
29294;SDS011;16305;48.566;8.846;2023-03-13T08:16:52;1.00;;;0.77;;
29294;SDS011;16305;48.566;8.846;2023-03-13T08:19:18;0.70;;;0.70;;
29294;SDS011;16305;48.566;8.846;2023-03-13T08:21:43;2.47;;;0.80;;
29294;SDS011;16305;48.566;8.846;2023-03-13T08:24:09;1.10;;;0.70;;
29294;SDS011;16305;48.566;8.846;2023-03-13T08:26:37;0.93;;;0.80;;
29294;SDS011;16305;48.566;8.846;2023-03-13T08:29:05;1.97;;;0.70;;
29294;SDS011;16305;48.566;8.846;2023-03-13T08:31:37;0.97;;;0.50;;
29294;SDS011;16305;48.566;8.846;2023-03-13T08:34:06;1.97;;;0.80;;
29294;SDS011;16305;48.566;8.846;2023-03-13T08:36:32;1.70;;;0.60;;
29294;SDS011;16305;48.566;8.846;2023-03-13T08:39:00;0.87;;;0.57;;
29294;SDS011;16305;48.566;8.846;2023-03-13T08:41:29;1.13;;;0.70;;
29294;SDS011;16305;48.566;8.846;2023-03-13T08:43:58;1.17;;;0.77;;
29294;SDS011;16305;48.566;8.846;2023-03-13T08:46:24;1.83;;;0.90;;
29294;SDS011;16305;48.566;8.846;2023-03-13T08:48:53;2.17;;;0.80;;
29294;SDS011;16305;48.566;8.846;2023-03-13T08:51:19;1.47;;;0.93;;
29294;SDS011;16305;48.566;8.846;2023-03-13T08:53:50;2.43;;;0.93;;
29294;SDS011;16305;48.566;8.846;2023-03-13T08:56:17;1.20;;;1.00;;
29294;SDS011;16305;48.566;8.846;2023-03-13T08:58:54;2.20;;;0.90;;
29294;SDS011;16305;48.566;8.846;2023-03-13T09:01:22;1.00;;;0.80;;
29294;SDS011;16305;48.566;8.846;2023-03-13T09:03:49;0.70;;;0.70;;
29294;SDS011;16305;48.566;8.846;2023-03-13T09:06:15;0.90;;;0.70;;
29294;SDS011;16305;48.566;8.846;2023-03-13T09:08:41;1.07;;;0.90;;
29294;SDS011;16305;48.566;8.846;2023-03-13T09:11:08;1.77;;;0.77;;
29294;SDS011;16305;48.566;8.846;2023-03-13T09:13:36;3.03;;;0.97;;
29294;SDS011;16305;48.566;8.846;2023-03-13T09:16:05;1.37;;;0.80;;
29294;SDS011;16305;48.566;8.846;2023-03-13T09:18:32;0.60;;;0.60;;
29294;SDS011;16305;48.566;8.846;2023-03-13T09:20:58;2.30;;;1.03;;
29294;SDS011;16305;48.566;8.846;2023-03-13T09:23:24;1.60;;;0.80;;
29294;SDS011;16305;48.566;8.846;2023-03-13T09:25:54;2.07;;;0.80;;
29294;SDS011;16305;48.566;8.846;2023-03-13T09:28:22;2.93;;;0.87;;
29294;SDS011;16305;48.566;8.846;2023-03-13T09:30:49;0.90;;;0.80;;
29294;SDS011;16305;48.566;8.846;2023-03-13T09:33:15;1.80;;;0.90;;
29294;SDS011;16305;48.566;8.846;2023-03-13T09:35:41;1.17;;;0.90;;
29294;SDS011;16305;48.566;8.846;2023-03-13T09:38:07;1.07;;;0.90;;
29294;SDS011;16305;48.566;8.846;2023-03-13T09:40:37;2.00;;;1.17;;
29294;SDS011;16305;48.566;8.846;2023-03-13T09:43:15;2.20;;;1.10;;
29294;SDS011;16305;48.566;8.846;2023-03-13T09:45:46;2.43;;;1.00;;
29294;SDS011;16305;48.566;8.846;2023-03-13T09:48:28;3.10;;;0.93;;
29294;SDS011;16305;48.566;8.846;2023-03-13T09:51:04;1.37;;;1.00;;
29294;SDS011;16305;48.566;8.846;2023-03-13T09:53:41;1.40;;;1.07;;
29294;SDS011;16305;48.566;8.846;2023-03-13T09:56:16;2.87;;;1.10;;
29294;SDS011;16305;48.566;8.846;2023-03-13T09:58:49;4.97;;;1.10;;
29294;SDS011;16305;48.566;8.846;2023-03-13T10:01:36;2.20;;;0.90;;
29294;SDS011;16305;48.566;8.846;2023-03-13T10:06:52;1.50;;;1.00;;
29294;SDS011;16305;48.566;8.846;2023-03-13T10:09:19;2.67;;;1.27;;
29294;SDS011;16305;48.566;8.846;2023-03-13T10:11:55;1.80;;;0.80;;
29294;SDS011;16305;48.566;8.846;2023-03-13T10:14:29;2.53;;;1.10;;
29294;SDS011;16305;48.566;8.846;2023-03-13T10:17:08;1.57;;;1.00;;
29294;SDS011;16305;48.566;8.846;2023-03-13T10:19:56;2.40;;;1.27;;
29294;SDS011;16305;48.566;8.846;2023-03-13T10:22:26;2.90;;;1.23;;
29294;SDS011;16305;48.566;8.846;2023-03-13T10:27:19;1.70;;;1.03;;
29294;SDS011;16305;48.566;8.846;2023-03-13T10:29:45;2.70;;;1.20;;
29294;SDS011;16305;48.566;8.846;2023-03-13T10:32:12;2.30;;;1.20;;
29294;SDS011;16305;48.566;8.846;2023-03-13T10:34:44;1.10;;;1.00;;
29294;SDS011;16305;48.566;8.846;2023-03-13T10:37:14;2.73;;;1.20;;
29294;SDS011;16305;48.566;8.846;2023-03-13T10:39:41;1.90;;;1.10;;
29294;SDS011;16305;48.566;8.846;2023-03-13T10:42:10;1.43;;;1.00;;
29294;SDS011;16305;48.566;8.846;2023-03-13T10:44:44;2.13;;;1.30;;
29294;SDS011;16305;48.566;8.846;2023-03-13T10:47:12;1.60;;;0.93;;
29294;SDS011;16305;48.566;8.846;2023-03-13T10:49:45;1.53;;;1.10;;
29294;SDS011;16305;48.566;8.846;2023-03-13T10:52:26;4.87;;;1.37;;
29294;SDS011;16305;48.566;8.846;2023-03-13T10:55:03;2.63;;;1.00;;
29294;SDS011;16305;48.566;8.846;2023-03-13T10:57:31;1.40;;;1.30;;
29294;SDS011;16305;48.566;8.846;2023-03-13T10:59:59;2.57;;;1.17;;
29294;SDS011;16305;48.566;8.846;2023-03-13T11:04:59;1.73;;;1.07;;
29294;SDS011;16305;48.566;8.846;2023-03-13T11:07:31;3.23;;;1.17;;
29294;SDS011;16305;48.566;8.846;2023-03-13T11:12:38;1.83;;;0.80;;
29294;SDS011;16305;48.566;8.846;2023-03-13T11:15:12;1.80;;;1.20;;
29294;SDS011;16305;48.566;8.846;2023-03-13T11:17:40;2.20;;;1.00;;
29294;SDS011;16305;48.566;8.846;2023-03-13T11:20:23;3.57;;;1.07;;
29294;SDS011;16305;48.566;8.846;2023-03-13T11:26:10;0.93;;;0.80;;
29294;SDS011;16305;48.566;8.846;2023-03-13T11:28:54;2.73;;;1.10;;
29294;SDS011;16305;48.566;8.846;2023-03-13T11:37:13;2.73;;;0.90;;
29294;SDS011;16305;48.566;8.846;2023-03-13T11:45:21;1.97;;;1.07;;
29294;SDS011;16305;48.566;8.846;2023-03-13T11:54:23;0.90;;;0.70;;
29294;SDS011;16305;48.566;8.846;2023-03-13T11:56:55;3.03;;;0.90;;
29294;SDS011;16305;48.566;8.846;2023-03-13T12:02:23;1.70;;;0.90;;
29294;SDS011;16305;48.566;8.846;2023-03-13T12:04:58;2.83;;;0.70;;
29294;SDS011;16305;48.566;8.846;2023-03-13T12:10:22;2.10;;;1.10;;
29294;SDS011;16305;48.566;8.846;2023-03-13T12:13:11;2.57;;;1.10;;
29294;SDS011;16305;48.566;8.846;2023-03-13T12:15:48;1.90;;;0.70;;
29294;SDS011;16305;48.566;8.846;2023-03-13T12:18:24;1.50;;;0.80;;
29294;SDS011;16305;48.566;8.846;2023-03-13T12:26:50;1.23;;;0.60;;
29294;SDS011;16305;48.566;8.846;2023-03-13T12:29:36;4.90;;;0.70;;
29294;SDS011;16305;48.566;8.846;2023-03-13T12:35:07;1.87;;;0.83;;
29294;SDS011;16305;48.566;8.846;2023-03-13T12:40:44;2.97;;;0.70;;
29294;SDS011;16305;48.566;8.846;2023-03-13T12:43:31;2.07;;;0.63;;
29294;SDS011;16305;48.566;8.846;2023-03-13T12:53:32;1.17;;;0.60;;
29294;SDS011;16305;48.566;8.846;2023-03-13T12:56:29;0.60;;;0.50;;
29294;SDS011;16305;48.566;8.846;2023-03-13T12:59:18;1.50;;;0.60;;
29294;SDS011;16305;48.566;8.846;2023-03-13T13:01:57;1.27;;;0.67;;
29294;SDS011;16305;48.566;8.846;2023-03-13T13:04:27;1.17;;;0.60;;
29294;SDS011;16305;48.566;8.846;2023-03-13T13:07:00;0.93;;;0.63;;
29294;SDS011;16305;48.566;8.846;2023-03-13T13:09:29;0.50;;;0.50;;
29294;SDS011;16305;48.566;8.846;2023-03-13T13:12:01;1.77;;;0.87;;
29294;SDS011;16305;48.566;8.846;2023-03-13T13:16:56;2.57;;;0.70;;
29294;SDS011;16305;48.566;8.846;2023-03-13T13:19:46;2.77;;;0.67;;
29294;SDS011;16305;48.566;8.846;2023-03-13T13:35:19;5.33;;;0.90;;
29294;SDS011;16305;48.566;8.846;2023-03-13T13:37:48;2.23;;;0.80;;
29294;SDS011;16305;48.566;8.846;2023-03-13T13:43:02;0.97;;;0.60;;
29294;SDS011;16305;48.566;8.846;2023-03-13T13:45:34;1.57;;;0.80;;
29294;SDS011;16305;48.566;8.846;2023-03-13T13:56:26;3.20;;;1.03;;
29294;SDS011;16305;48.566;8.846;2023-03-13T14:01:44;1.40;;;0.73;;
29294;SDS011;16305;48.566;8.846;2023-03-13T14:04:27;1.67;;;0.70;;
29294;SDS011;16305;48.566;8.846;2023-03-13T14:06:56;3.60;;;0.70;;
29294;SDS011;16305;48.566;8.846;2023-03-13T14:12:00;1.00;;;0.70;;
29294;SDS011;16305;48.566;8.846;2023-03-13T14:14:25;2.47;;;0.70;;
29294;SDS011;16305;48.566;8.846;2023-03-13T14:16:52;1.70;;;0.90;;
29294;SDS011;16305;48.566;8.846;2023-03-13T14:19:35;1.43;;;1.13;;
29294;SDS011;16305;48.566;8.846;2023-03-13T14:22:08;2.17;;;0.70;;
29294;SDS011;16305;48.566;8.846;2023-03-13T14:24:35;1.53;;;0.60;;
29294;SDS011;16305;48.566;8.846;2023-03-13T14:27:02;1.73;;;0.50;;
29294;SDS011;16305;48.566;8.846;2023-03-13T14:29:58;2.10;;;1.17;;
29294;SDS011;16305;48.566;8.846;2023-03-13T14:32:28;2.27;;;0.67;;
29294;SDS011;16305;48.566;8.846;2023-03-13T14:34:54;1.60;;;1.00;;
29294;SDS011;16305;48.566;8.846;2023-03-13T14:37:35;1.83;;;1.10;;
29294;SDS011;16305;48.566;8.846;2023-03-13T14:40:09;2.70;;;1.20;;
29294;SDS011;16305;48.566;8.846;2023-03-13T14:42:47;3.60;;;2.30;;
29294;SDS011;16305;48.566;8.846;2023-03-13T14:45:18;6.03;;;2.03;;
29294;SDS011;16305;48.566;8.846;2023-03-13T14:47:48;1.87;;;0.80;;
29294;SDS011;16305;48.566;8.846;2023-03-13T14:50:17;2.17;;;0.80;;
29294;SDS011;16305;48.566;8.846;2023-03-13T14:52:45;1.90;;;0.70;;
29294;SDS011;16305;48.566;8.846;2023-03-13T15:00:38;1.53;;;0.70;;
29294;SDS011;16305;48.566;8.846;2023-03-13T15:03:12;1.60;;;0.60;;
29294;SDS011;16305;48.566;8.846;2023-03-13T15:08:34;2.83;;;0.73;;
29294;SDS011;16305;48.566;8.846;2023-03-13T15:11:01;2.50;;;0.60;;
29294;SDS011;16305;48.566;8.846;2023-03-13T15:13:40;1.17;;;0.70;;
29294;SDS011;16305;48.566;8.846;2023-03-13T15:16:16;1.77;;;0.70;;
29294;SDS011;16305;48.566;8.846;2023-03-13T15:18:44;4.70;;;0.83;;
29294;SDS011;16305;48.566;8.846;2023-03-13T15:23:38;3.03;;;0.80;;
29294;SDS011;16305;48.566;8.846;2023-03-13T15:26:04;0.97;;;0.70;;
29294;SDS011;16305;48.566;8.846;2023-03-13T15:28:30;2.20;;;0.77;;
29294;SDS011;16305;48.566;8.846;2023-03-13T15:30:56;2.37;;;0.90;;
29294;SDS011;16305;48.566;8.846;2023-03-13T15:33:22;1.90;;;0.60;;
29294;SDS011;16305;48.566;8.846;2023-03-13T15:35:52;2.33;;;0.90;;
29294;SDS011;16305;48.566;8.846;2023-03-13T15:38:19;3.23;;;0.80;;
29294;SDS011;16305;48.566;8.846;2023-03-13T15:40:46;2.60;;;0.73;;
29294;SDS011;16305;48.566;8.846;2023-03-13T15:43:12;1.87;;;0.90;;
29294;SDS011;16305;48.566;8.846;2023-03-13T15:45:39;2.10;;;1.40;;
29294;SDS011;16305;48.566;8.846;2023-03-13T15:48:25;3.23;;;1.10;;
29294;SDS011;16305;48.566;8.846;2023-03-13T15:50:53;1.93;;;1.00;;
29294;SDS011;16305;48.566;8.846;2023-03-13T15:53:21;1.13;;;0.70;;
29294;SDS011;16305;48.566;8.846;2023-03-13T15:55:52;1.53;;;1.00;;
29294;SDS011;16305;48.566;8.846;2023-03-13T15:58:19;2.93;;;0.90;;
29294;SDS011;16305;48.566;8.846;2023-03-13T16:00:45;1.40;;;0.80;;
29294;SDS011;16305;48.566;8.846;2023-03-13T16:03:16;3.40;;;0.80;;
29294;SDS011;16305;48.566;8.846;2023-03-13T16:05:46;1.33;;;0.60;;
29294;SDS011;16305;48.566;8.846;2023-03-13T16:08:17;4.60;;;1.10;;
29294;SDS011;16305;48.566;8.846;2023-03-13T16:10:44;1.97;;;0.80;;
29294;SDS011;16305;48.566;8.846;2023-03-13T16:13:10;0.90;;;0.80;;
29294;SDS011;16305;48.566;8.846;2023-03-13T16:15:36;1.93;;;1.10;;
29294;SDS011;16305;48.566;8.846;2023-03-13T16:18:02;1.53;;;1.03;;
29294;SDS011;16305;48.566;8.846;2023-03-13T16:20:29;1.57;;;1.10;;
29294;SDS011;16305;48.566;8.846;2023-03-13T16:22:55;2.63;;;1.00;;
29294;SDS011;16305;48.566;8.846;2023-03-13T16:25:21;3.40;;;0.97;;
29294;SDS011;16305;48.566;8.846;2023-03-13T16:27:48;4.87;;;1.10;;
29294;SDS011;16305;48.566;8.846;2023-03-13T16:32:45;2.53;;;1.50;;
29294;SDS011;16305;48.566;8.846;2023-03-13T16:35:11;3.83;;;1.40;;
29294;SDS011;16305;48.566;8.846;2023-03-13T16:37:36;1.77;;;1.10;;
29294;SDS011;16305;48.566;8.846;2023-03-13T16:40:02;6.00;;;3.20;;